createdAt,value
2022-08-21T00:02:18.217Z,8.13
2022-08-21T00:04:48.278Z,11.65
2022-08-21T00:07:25.322Z,11.40
2022-08-21T00:09:52.826Z,9.38
2022-08-21T00:12:20.118Z,9.57
2022-08-21T00:14:47.036Z,10.38
2022-08-21T00:17:14.132Z,10.00
2022-08-21T00:19:41.361Z,11.52
2022-08-21T00:22:08.328Z,11.45
2022-08-21T00:24:35.689Z,7.85
2022-08-21T00:27:02.815Z,10.98
2022-08-21T00:29:29.521Z,8.05
2022-08-21T00:31:56.216Z,10.52
2022-08-21T00:34:22.959Z,8.77
2022-08-21T00:36:49.700Z,11.18
2022-08-21T00:39:16.784Z,9.10
2022-08-21T00:41:43.966Z,13.40
2022-08-21T00:44:13.840Z,9.13
2022-08-21T00:46:42.769Z,13.00
2022-08-21T00:49:12.752Z,10.82
2022-08-21T00:51:53.089Z,11.75
2022-08-21T00:54:23.419Z,9.23
2022-08-21T00:56:54.284Z,11.02
2022-08-21T00:59:23.060Z,10.35
2022-08-21T01:01:50.811Z,11.70
2022-08-21T01:04:17.931Z,8.05
2022-08-21T01:06:47.408Z,11.52
2022-08-21T01:09:14.911Z,11.45
2022-08-21T01:11:43.878Z,9.27
2022-08-21T01:14:13.092Z,10.25
2022-08-21T01:16:43.822Z,10.93
2022-08-21T01:19:11.885Z,9.82
2022-08-21T01:21:39.095Z,9.35
2022-08-21T01:24:06.866Z,9.82
2022-08-21T01:26:36.530Z,10.18
2022-08-21T01:29:06.731Z,10.48
2022-08-21T01:31:35.274Z,10.80
2022-08-21T01:34:02.060Z,13.18
2022-08-21T01:36:29.250Z,12.60
2022-08-21T01:38:56.938Z,11.55
2022-08-21T01:41:24.044Z,12.02
2022-08-21T01:43:51.189Z,12.27
2022-08-21T01:46:18.119Z,13.25
2022-08-21T01:48:44.954Z,11.93
2022-08-21T01:51:12.647Z,12.02
2022-08-21T01:53:39.784Z,15.57
2022-08-21T01:56:12.246Z,12.55
2022-08-21T01:58:41.950Z,16.13
2022-08-21T02:01:10.329Z,11.70
2022-08-21T02:03:37.979Z,12.45
2022-08-21T02:06:06.348Z,14.20
2022-08-21T02:08:33.603Z,12.77
2022-08-21T02:11:01.128Z,11.30
2022-08-21T02:13:27.861Z,14.95
2022-08-21T02:15:54.930Z,14.30
2022-08-21T02:18:22.035Z,15.30
2022-08-21T02:20:55.957Z,12.40
2022-08-21T02:23:26.804Z,13.55
2022-08-21T02:25:55.682Z,13.70
2022-08-21T02:28:23.132Z,12.73
2022-08-21T02:30:50.552Z,13.93
2022-08-21T02:33:17.732Z,14.30
2022-08-21T02:35:46.168Z,11.25
2022-08-21T02:38:16.479Z,12.85
2022-08-21T02:40:48.035Z,12.43
2022-08-21T02:43:16.491Z,12.98
2022-08-21T02:45:45.058Z,12.27
2022-08-21T02:48:15.491Z,15.48
2022-08-21T02:50:55.411Z,11.48
2022-08-21T02:53:22.803Z,13.13
2022-08-21T02:55:51.043Z,15.02
2022-08-21T02:58:23.119Z,18.55
2022-08-21T03:00:50.791Z,13.65
2022-08-21T03:03:17.524Z,15.30
2022-08-21T03:05:44.993Z,14.75
2022-08-21T03:08:13.645Z,12.93
2022-08-21T03:10:46.119Z,12.85
2022-08-21T03:13:13.596Z,12.65
2022-08-21T03:15:40.996Z,12.98
2022-08-21T03:18:08.519Z,13.27
2022-08-21T03:20:36.503Z,12.25
2022-08-21T03:23:04.287Z,14.93
2022-08-21T03:25:41.007Z,13.90
2022-08-21T03:28:13.263Z,15.43
2022-08-21T03:30:49.822Z,16.17
2022-08-21T03:33:16.797Z,15.95
2022-08-21T03:35:53.896Z,15.63
2022-08-21T03:38:25.850Z,14.75
2022-08-21T03:40:53.916Z,15.68
2022-08-21T03:43:21.049Z,17.52
2022-08-21T03:45:47.909Z,14.02
2022-08-21T03:48:15.370Z,15.45
2022-08-21T03:50:44.179Z,15.13
2022-08-21T03:53:17.392Z,17.27
2022-08-21T03:55:50.105Z,13.90
2022-08-21T03:58:19.411Z,15.20
2022-08-21T04:00:49.003Z,16.90
2022-08-21T04:03:16.691Z,14.40
2022-08-21T04:05:43.745Z,14.75
2022-08-21T04:08:10.927Z,15.07
2022-08-21T04:10:40.104Z,16.30
2022-08-21T04:13:08.804Z,16.08
2022-08-21T04:15:35.916Z,14.23
2022-08-21T04:18:03.091Z,14.68
2022-08-21T04:20:30.272Z,17.25
2022-08-21T04:22:57.322Z,13.82
2022-08-21T04:25:26.330Z,18.92
2022-08-21T04:27:53.512Z,15.20
2022-08-21T04:30:20.705Z,15.70
2022-08-21T04:32:49.584Z,17.98
2022-08-21T04:35:19.836Z,17.33
2022-08-21T04:37:46.962Z,14.45
2022-08-21T04:40:16.581Z,15.63
2022-08-21T04:42:47.033Z,16.65
2022-08-21T04:45:20.812Z,14.45
2022-08-21T04:47:53.113Z,17.40
2022-08-21T04:50:25.512Z,15.85
2022-08-21T04:53:06.136Z,18.90
2022-08-21T04:55:33.335Z,14.73
2022-08-21T04:58:01.065Z,14.20
2022-08-21T05:00:28.429Z,16.60
2022-08-21T05:02:59.876Z,16.90
2022-08-21T05:05:30.045Z,13.88
2022-08-21T05:07:59.981Z,13.68
2022-08-21T05:10:27.199Z,14.80
2022-08-21T05:12:54.472Z,15.70
2022-08-21T05:15:21.739Z,14.93
2022-08-21T05:17:52.367Z,17.75
2022-08-21T05:20:22.150Z,15.23
2022-08-21T05:22:49.290Z,19.02
2022-08-21T05:25:16.512Z,18.10
2022-08-21T05:27:44.219Z,16.40
2022-08-21T05:30:11.791Z,7.90
2022-08-21T05:32:38.859Z,16.30
2022-08-21T05:35:07.930Z,14.45
2022-08-21T05:37:35.331Z,18.25
2022-08-21T05:40:20.923Z,13.27
2022-08-21T05:42:56.717Z,15.75
2022-08-21T05:45:41.798Z,16.63
2022-08-21T05:48:22.759Z,12.95
2022-08-21T05:50:51.621Z,17.65
2022-08-21T05:53:20.330Z,12.52
2022-08-21T05:55:47.904Z,9.98
2022-08-21T05:58:17.807Z,11.82
2022-08-21T06:00:46.529Z,15.32
2022-08-21T06:03:20.800Z,16.38
2022-08-21T06:05:48.028Z,18.40
2022-08-21T06:08:17.041Z,13.95
2022-08-21T06:10:44.616Z,9.55
2022-08-21T06:13:12.592Z,9.13
2022-08-21T06:15:40.368Z,19.70
2022-08-21T06:18:07.538Z,15.82
2022-08-21T06:20:34.869Z,12.10
2022-08-21T06:23:02.194Z,12.50
2022-08-21T06:25:30.005Z,16.15
2022-08-21T06:28:09.807Z,14.40
2022-08-21T06:30:37.956Z,9.98
2022-08-21T06:33:04.718Z,11.88
2022-08-21T06:35:31.883Z,13.43
2022-08-21T06:37:58.943Z,15.65
2022-08-21T06:40:27.543Z,14.10
2022-08-21T06:42:58.603Z,15.85
2022-08-21T06:45:26.180Z,13.55
2022-08-21T06:50:21.753Z,14.57
2022-08-21T06:52:49.117Z,14.15
2022-08-21T06:55:22.410Z,14.93
2022-08-21T06:57:51.777Z,12.75
2022-08-21T07:00:19.761Z,12.88
2022-08-21T07:02:46.448Z,12.00
2022-08-21T07:05:18.267Z,11.38
2022-08-21T07:07:46.498Z,13.68
2022-08-21T07:10:21.677Z,13.63
2022-08-21T07:12:50.765Z,12.32
2022-08-21T07:15:19.599Z,10.57
2022-08-21T07:17:46.437Z,12.60
2022-08-21T07:20:13.821Z,13.52
2022-08-21T07:22:41.747Z,12.55
2022-08-21T07:25:09.412Z,12.20
2022-08-21T07:27:36.212Z,13.05
2022-08-21T07:30:04.268Z,12.93
2022-08-21T07:32:31.000Z,11.57
2022-08-21T07:34:57.766Z,11.52
2022-08-21T07:37:24.681Z,13.98
2022-08-21T07:39:52.407Z,11.55
2022-08-21T07:42:19.144Z,10.85
2022-08-21T07:44:45.864Z,12.38
2022-08-21T07:47:12.828Z,12.75
2022-08-21T07:49:40.314Z,11.68
2022-08-21T07:52:07.502Z,12.70
2022-08-21T07:54:34.686Z,11.55
2022-08-21T07:57:02.178Z,11.07
2022-08-21T07:59:29.423Z,10.35
2022-08-21T08:01:57.464Z,13.00
2022-08-21T08:04:26.478Z,13.23
2022-08-21T08:06:53.728Z,11.18
2022-08-21T08:09:20.706Z,12.90
2022-08-21T08:11:47.394Z,11.15
2022-08-21T08:14:14.161Z,12.05
2022-08-21T08:16:40.841Z,10.40
2022-08-21T08:19:07.594Z,12.20
2022-08-21T08:21:35.106Z,9.98
2022-08-21T08:24:18.441Z,10.63
2022-08-21T08:26:46.776Z,11.30
2022-08-21T08:29:20.930Z,7.22
2022-08-21T08:31:48.012Z,13.18
2022-08-21T08:34:25.251Z,13.05
2022-08-21T08:36:53.311Z,8.57
2022-08-21T08:39:26.594Z,11.20
2022-08-21T08:42:33.365Z,9.38
2022-08-21T08:45:09.058Z,9.32
2022-08-21T08:47:39.244Z,10.57
2022-08-21T08:50:11.741Z,10.10
2022-08-21T08:52:47.225Z,11.48
2022-08-21T08:57:49.894Z,10.88
2022-08-21T09:00:21.246Z,10.18
2022-08-21T09:02:49.733Z,12.18
2022-08-21T09:05:45.925Z,9.65
2022-08-21T09:08:21.449Z,11.70
2022-08-21T09:11:11.272Z,14.18
2022-08-21T09:14:01.832Z,12.27
2022-08-21T09:16:40.451Z,11.48
2022-08-21T09:19:33.522Z,10.88
2022-08-21T09:22:08.929Z,12.18
2022-08-21T09:24:56.286Z,11.57
2022-08-21T09:27:23.233Z,11.70
2022-08-21T09:29:53.079Z,10.65
2022-08-21T09:32:37.078Z,13.38
2022-08-21T09:35:07.561Z,11.13
2022-08-21T09:37:47.627Z,8.98
2022-08-21T09:40:44.701Z,11.15
2022-08-21T09:43:20.295Z,9.40
2022-08-21T09:45:49.478Z,8.85
2022-08-21T09:48:26.950Z,7.75
2022-08-21T09:51:16.760Z,9.98
2022-08-21T09:53:48.664Z,9.77
2022-08-21T09:56:42.620Z,8.57
2022-08-21T09:59:18.887Z,9.45
2022-08-21T10:01:51.178Z,10.75
2022-08-21T10:04:23.543Z,10.00
2022-08-21T10:06:50.627Z,9.35
2022-08-21T10:09:21.623Z,11.07
2022-08-21T10:12:11.025Z,11.35
2022-08-21T10:14:47.067Z,9.10
2022-08-21T10:20:03.120Z,9.65
2022-08-21T10:22:47.199Z,12.32
2022-08-21T10:25:50.265Z,10.52
2022-08-21T10:28:36.285Z,7.03
2022-08-21T10:31:40.588Z,10.55
2022-08-21T10:34:38.432Z,9.23
2022-08-21T10:37:19.491Z,13.07
2022-08-21T10:39:55.336Z,11.55
2022-08-21T10:42:28.552Z,10.68
2022-08-21T10:45:14.804Z,9.52
2022-08-21T10:48:16.870Z,8.48
2022-08-21T10:50:56.606Z,12.75
2022-08-21T10:53:42.484Z,7.80
2022-08-21T10:56:21.753Z,10.07
2022-08-21T10:59:26.714Z,8.02
2022-08-21T11:01:59.289Z,7.68
2022-08-21T11:04:49.230Z,9.50
2022-08-21T11:07:30.200Z,9.32
2022-08-21T11:10:16.058Z,10.07
2022-08-21T11:15:29.935Z,7.88
2022-08-21T11:18:24.601Z,11.02
2022-08-21T11:21:20.821Z,9.20
2022-08-21T11:24:05.655Z,10.10
2022-08-21T11:26:51.251Z,10.32
2022-08-21T11:29:35.352Z,10.48
2022-08-21T11:32:15.181Z,7.55
2022-08-21T11:35:00.746Z,8.73
2022-08-21T11:37:48.942Z,8.95
2022-08-21T11:40:45.387Z,12.77
2022-08-21T11:43:33.207Z,11.35
2022-08-21T11:46:25.872Z,11.23
2022-08-21T11:48:55.331Z,8.75
2022-08-21T11:51:33.816Z,8.40
2022-08-21T11:54:25.261Z,9.10
2022-08-21T11:57:01.236Z,8.52
2022-08-21T11:59:41.549Z,7.40
2022-08-21T12:02:15.803Z,10.85
2022-08-21T12:04:54.020Z,11.02
2022-08-21T12:07:42.464Z,9.63
2022-08-21T12:10:15.769Z,9.05
2022-08-21T12:12:45.059Z,8.10
2022-08-21T12:15:20.891Z,10.05
2022-08-21T12:18:01.538Z,8.45
2022-08-21T12:20:45.161Z,9.00
2022-08-21T12:23:29.461Z,8.40
2022-08-21T12:26:30.640Z,10.05
2022-08-21T12:29:21.580Z,6.50
2022-08-21T12:32:01.022Z,9.15
2022-08-21T12:34:37.498Z,7.53
2022-08-21T12:37:18.634Z,9.10
2022-08-21T12:39:48.706Z,10.43
2022-08-21T12:42:34.601Z,7.65
2022-08-21T12:45:11.197Z,8.40
2022-08-21T12:47:51.962Z,7.25
2022-08-21T12:50:25.608Z,8.00
2022-08-21T12:53:05.172Z,6.75
2022-08-21T12:55:45.363Z,7.47
2022-08-21T12:58:25.592Z,10.13
2022-08-21T13:00:56.825Z,9.10
2022-08-21T13:03:24.376Z,10.52
2022-08-21T13:05:52.832Z,10.07
2022-08-21T13:08:21.896Z,6.57
2022-08-21T13:10:57.237Z,6.65
2022-08-21T13:13:28.319Z,8.95
2022-08-21T13:16:05.517Z,7.80
2022-08-21T13:18:35.907Z,6.82
2022-08-21T13:21:11.884Z,9.82
2022-08-21T13:23:39.824Z,6.40
2022-08-21T13:26:18.936Z,7.60
2022-08-21T13:28:48.290Z,8.38
2022-08-21T13:33:49.439Z,7.70
2022-08-21T13:36:27.611Z,8.52
2022-08-21T13:38:55.744Z,6.57
2022-08-21T13:41:28.253Z,14.60
2022-08-21T13:44:04.520Z,10.57
2022-08-21T13:46:35.438Z,5.60
2022-08-21T13:49:04.040Z,9.02
2022-08-21T13:51:32.212Z,8.00
2022-08-21T13:53:59.592Z,8.40
2022-08-21T13:56:33.665Z,9.50
2022-08-21T13:59:02.621Z,7.50
2022-08-21T14:01:35.392Z,8.57
2022-08-21T14:04:20.300Z,7.93
2022-08-21T14:06:47.237Z,9.98
2022-08-21T14:09:27.928Z,10.85
2022-08-21T14:11:57.112Z,8.68
2022-08-21T14:14:31.627Z,11.52
2022-08-21T14:17:23.328Z,8.10
2022-08-21T14:19:51.399Z,9.27
2022-08-21T14:22:33.470Z,7.50
2022-08-21T14:25:06.609Z,7.35
2022-08-21T14:27:35.976Z,6.47
2022-08-21T14:32:44.894Z,7.35
2022-08-21T14:35:13.473Z,6.68
2022-08-21T14:37:43.589Z,7.68
2022-08-21T14:40:12.070Z,9.45
2022-08-21T14:42:43.183Z,9.93
2022-08-21T14:45:27.896Z,8.15
2022-08-21T14:47:55.619Z,7.40
2022-08-21T14:50:22.792Z,8.77
2022-08-21T14:52:50.476Z,5.10
2022-08-21T14:55:19.020Z,9.23
2022-08-21T14:57:51.752Z,9.32
2022-08-21T15:00:23.848Z,8.98
2022-08-21T15:03:01.272Z,4.47
2022-08-21T15:05:32.865Z,9.18
2022-08-21T15:08:00.751Z,8.75
2022-08-21T15:10:27.504Z,8.05
2022-08-21T15:12:54.674Z,7.25
2022-08-21T15:15:21.775Z,8.25
2022-08-21T15:17:48.872Z,10.10
2022-08-21T15:20:15.680Z,11.23
2022-08-21T15:22:55.855Z,6.93
2022-08-21T15:25:22.988Z,9.23
2022-08-21T15:27:49.660Z,9.20
2022-08-21T15:30:16.556Z,9.18
2022-08-21T15:32:43.651Z,10.60
2022-08-21T15:35:10.704Z,9.70
2022-08-21T15:37:37.803Z,9.45
2022-08-21T15:40:07.192Z,17.83
2022-08-21T15:42:34.874Z,10.18
2022-08-21T15:45:02.040Z,7.78
2022-08-21T15:47:32.900Z,8.52
2022-08-21T15:49:59.784Z,7.63
2022-08-21T15:52:26.898Z,7.22
2022-08-21T15:54:54.129Z,9.90
2022-08-21T15:57:23.306Z,7.03
2022-08-21T15:59:58.580Z,8.95
2022-08-21T16:02:31.474Z,9.15
2022-08-21T16:04:59.208Z,8.88
2022-08-21T16:07:26.758Z,9.60
2022-08-21T16:09:53.731Z,12.52
2022-08-21T16:12:31.734Z,19.38
2022-08-21T16:15:00.441Z,12.02
2022-08-21T16:17:33.503Z,9.43
2022-08-21T16:20:02.334Z,9.48
2022-08-21T16:22:39.856Z,8.00
2022-08-21T16:25:12.303Z,9.68
2022-08-21T16:27:40.370Z,6.32
2022-08-21T16:30:07.967Z,7.88
2022-08-21T16:32:35.369Z,6.78
2022-08-21T16:35:03.613Z,8.85
2022-08-21T16:37:31.216Z,6.65
2022-08-21T16:39:57.989Z,7.68
2022-08-21T16:42:26.652Z,7.93
2022-08-21T16:44:55.216Z,9.90
2022-08-21T16:47:27.266Z,13.70
2022-08-21T16:49:54.855Z,8.43
2022-08-21T16:52:21.560Z,7.43
2022-08-21T16:54:48.271Z,6.70
2022-08-21T16:57:15.159Z,6.45
2022-08-21T16:59:42.461Z,12.02
2022-08-21T17:02:29.735Z,8.57
2022-08-21T17:04:57.014Z,8.73
2022-08-21T17:07:25.371Z,8.50
2022-08-21T17:09:53.152Z,8.18
2022-08-21T17:12:20.098Z,6.80
2022-08-21T17:14:47.974Z,7.88
2022-08-21T17:17:14.949Z,8.90
2022-08-21T17:19:42.246Z,8.20
2022-08-21T17:22:09.827Z,4.93
2022-08-21T17:24:37.334Z,5.72
2022-08-21T17:27:05.582Z,6.38
2022-08-21T17:29:37.026Z,9.02
2022-08-21T17:32:07.996Z,15.63
2022-08-21T17:34:35.106Z,8.93
2022-08-21T17:37:01.752Z,13.30
2022-08-21T17:39:28.506Z,11.73
2022-08-21T17:41:58.207Z,29.80
2022-08-21T17:44:25.668Z,8.85
2022-08-21T17:46:53.748Z,8.77
2022-08-21T17:49:20.500Z,10.10
2022-08-21T17:51:47.814Z,9.35
2022-08-21T17:54:15.003Z,9.00
2022-08-21T17:56:43.028Z,10.73
2022-08-21T17:59:11.384Z,10.43
2022-08-21T18:01:42.492Z,8.35
2022-08-21T18:04:11.115Z,9.98
2022-08-21T18:06:37.995Z,10.07
2022-08-21T18:09:05.739Z,9.98
2022-08-21T18:11:32.731Z,9.00
2022-08-21T18:14:07.149Z,9.40
2022-08-21T18:16:37.741Z,8.80
2022-08-21T18:19:09.008Z,8.82
2022-08-21T18:21:36.535Z,8.70
2022-08-21T18:24:03.734Z,8.02
2022-08-21T18:26:38.355Z,9.20
2022-08-21T18:29:07.653Z,9.15
2022-08-21T18:31:37.243Z,9.52
2022-08-21T18:34:11.337Z,9.32
2022-08-21T18:36:39.136Z,8.13
2022-08-21T18:39:34.403Z,8.20
2022-08-21T18:41:54.634Z,6.13
2022-08-21T18:44:23.326Z,10.90
2022-08-21T18:46:56.071Z,8.75
2022-08-21T18:49:22.731Z,9.85
2022-08-21T18:51:50.478Z,7.78
2022-08-21T18:54:17.670Z,8.23
2022-08-21T18:56:45.007Z,9.20
2022-08-21T18:59:13.743Z,8.00
2022-08-21T19:01:42.512Z,7.72
2022-08-21T19:04:21.304Z,8.60
2022-08-21T19:06:56.767Z,10.02
2022-08-21T19:09:23.395Z,9.32
2022-08-21T19:14:37.210Z,7.93
2022-08-21T19:17:04.453Z,9.90
2022-08-21T19:19:32.183Z,8.10
2022-08-21T19:21:59.801Z,7.72
2022-08-21T19:24:26.902Z,8.02
2022-08-21T19:26:55.751Z,8.20
2022-08-21T19:29:34.698Z,10.63
2022-08-21T19:32:05.688Z,10.30
2022-08-21T19:34:35.331Z,8.75
2022-08-21T19:37:02.357Z,8.50
2022-08-21T19:39:30.872Z,10.25
2022-08-21T19:41:59.419Z,8.93
2022-08-21T19:44:29.394Z,9.55
2022-08-21T19:46:57.839Z,9.82
2022-08-21T19:49:28.735Z,8.65
2022-08-21T19:51:58.728Z,8.68
2022-08-21T19:54:32.922Z,9.32
2022-08-21T19:57:06.602Z,8.65
2022-08-21T19:59:35.392Z,6.82
2022-08-21T20:02:02.548Z,9.88
2022-08-21T20:04:29.644Z,10.75
2022-08-21T20:06:56.437Z,10.68
2022-08-21T20:09:23.571Z,12.95
2022-08-21T20:11:56.285Z,10.23
2022-08-21T20:14:26.570Z,9.77
2022-08-21T20:17:08.126Z,9.23
2022-08-21T20:19:38.841Z,9.80
2022-08-21T20:22:06.513Z,9.32
2022-08-21T20:24:34.023Z,8.93
2022-08-21T20:29:51.225Z,11.35
2022-08-21T20:32:18.722Z,10.05
2022-08-21T20:34:45.830Z,10.45
2022-08-21T20:37:22.366Z,10.85
2022-08-21T20:42:57.585Z,11.23
2022-08-21T20:45:31.051Z,12.88
2022-08-21T20:48:28.586Z,9.77
2022-08-21T20:51:21.842Z,11.00
2022-08-21T20:54:21.897Z,11.90
2022-08-21T20:57:04.665Z,9.27
2022-08-21T20:59:49.994Z,10.07
2022-08-21T21:02:17.141Z,11.00
2022-08-21T21:04:51.507Z,15.40
2022-08-21T21:07:47.320Z,11.48
2022-08-21T21:10:34.087Z,9.05
2022-08-21T21:13:22.931Z,12.13
2022-08-21T21:15:54.799Z,9.45
2022-08-21T21:18:42.521Z,9.52
2022-08-21T21:21:51.701Z,11.77
2022-08-21T21:24:19.560Z,12.32
2022-08-21T21:26:57.157Z,8.88
2022-08-21T21:29:29.889Z,9.18
2022-08-21T21:31:57.065Z,9.27
2022-08-21T21:34:26.674Z,8.68
2022-08-21T21:37:14.475Z,9.57
2022-08-21T21:39:50.143Z,7.55
2022-08-21T21:42:17.242Z,10.63
2022-08-21T21:45:08.861Z,14.43
2022-08-21T21:47:41.323Z,9.48
2022-08-21T21:50:26.481Z,10.60
2022-08-21T21:52:54.772Z,11.27
2022-08-21T21:55:46.551Z,11.38
2022-08-21T21:58:37.387Z,10.07
2022-08-21T22:01:18.859Z,12.75
2022-08-21T22:03:59.527Z,10.10
2022-08-21T22:06:52.556Z,15.63
2022-08-21T22:09:45.589Z,8.82
2022-08-21T22:12:24.401Z,8.65
2022-08-21T22:14:52.151Z,10.30
2022-08-21T22:17:37.720Z,10.23
2022-08-21T22:20:15.528Z,11.63
2022-08-21T22:22:43.841Z,8.57
2022-08-21T22:25:20.940Z,10.60
2022-08-21T22:30:41.674Z,9.80
2022-08-21T22:33:19.979Z,12.15
2022-08-21T22:35:51.725Z,13.50
2022-08-21T22:38:39.471Z,9.10
2022-08-21T22:41:19.392Z,11.70
2022-08-21T22:43:54.819Z,9.13
2022-08-21T22:46:50.089Z,11.35
2022-08-21T22:49:38.747Z,11.10
2022-08-21T22:52:24.971Z,10.05
2022-08-21T22:54:58.288Z,10.43
2022-08-21T22:57:34.998Z,10.30
2022-08-21T23:00:33.860Z,8.88
2022-08-21T23:03:02.960Z,11.40
2022-08-21T23:08:39.077Z,12.75
2022-08-21T23:11:20.897Z,9.63
2022-08-21T23:13:52.352Z,10.07
2022-08-21T23:16:47.117Z,10.07
2022-08-21T23:19:44.560Z,8.60
2022-08-21T23:22:36.158Z,13.05
2022-08-21T23:25:12.567Z,12.32
2022-08-21T23:28:03.840Z,11.15
2022-08-21T23:30:41.815Z,12.02
2022-08-21T23:33:15.631Z,11.65
2022-08-21T23:36:04.120Z,10.50
2022-08-21T23:38:55.600Z,11.63
2022-08-21T23:42:05.843Z,13.85
2022-08-21T23:44:33.407Z,12.18
2022-08-21T23:47:22.852Z,13.82
2022-08-21T23:52:49.491Z,9.48
2022-08-21T23:55:41.458Z,10.43
2022-08-21T23:58:08.587Z,10.38
